sensor_id;sensor_type;location;lat;lon;timestamp;pressure;altitude;pressure_sealevel;temperature;humidity
19676;BME280;39539;52.202;9.876;2022-08-30T00:00:07;101452.56;;;14.18;100.00
19676;BME280;39539;52.202;9.876;2022-08-30T00:02:51;101459.75;;;14.18;100.00
19676;BME280;39539;52.202;9.876;2022-08-30T00:05:17;101450.72;;;14.12;100.00
19676;BME280;39539;52.202;9.876;2022-08-30T00:07:42;101442.13;;;14.03;100.00
19676;BME280;39539;52.202;9.876;2022-08-30T00:10:08;101458.38;;;13.95;100.00
19676;BME280;39539;52.202;9.876;2022-08-30T00:12:35;101460.84;;;13.97;100.00
19676;BME280;39539;52.202;9.876;2022-08-30T00:15:00;101462.13;;;13.87;100.00
19676;BME280;39539;52.202;9.876;2022-08-30T00:17:25;101465.22;;;13.84;100.00
19676;BME280;39539;52.202;9.876;2022-08-30T00:19:51;101458.84;;;13.85;100.00
19676;BME280;39539;52.202;9.876;2022-08-30T00:22:18;101467.47;;;13.74;100.00
19676;BME280;39539;52.202;9.876;2022-08-30T00:24:43;101455.56;;;13.70;100.00
19676;BME280;39539;52.202;9.876;2022-08-30T00:27:08;101465.41;;;13.83;100.00
19676;BME280;39539;52.202;9.876;2022-08-30T00:29:34;101466.66;;;13.80;100.00
19676;BME280;39539;52.202;9.876;2022-08-30T00:31:59;101457.41;;;13.83;100.00
19676;BME280;39539;52.202;9.876;2022-08-30T00:34:27;101458.84;;;13.85;100.00
19676;BME280;39539;52.202;9.876;2022-08-30T00:36:52;101448.16;;;13.79;100.00
19676;BME280;39539;52.202;9.876;2022-08-30T00:39:17;101455.97;;;13.80;100.00
19676;BME280;39539;52.202;9.876;2022-08-30T00:41:43;101453.31;;;13.74;100.00
19676;BME280;39539;52.202;9.876;2022-08-30T00:44:09;101454.75;;;13.63;100.00
19676;BME280;39539;52.202;9.876;2022-08-30T00:46:34;101442.03;;;13.52;100.00
19676;BME280;39539;52.202;9.876;2022-08-30T00:49:02;101453.75;;;13.51;100.00
19676;BME280;39539;52.202;9.876;2022-08-30T00:51:29;101428.88;;;13.50;100.00
19676;BME280;39539;52.202;9.876;2022-08-30T00:53:56;101435.84;;;13.58;100.00
19676;BME280;39539;52.202;9.876;2022-08-30T00:56:23;101436.28;;;13.55;100.00
19676;BME280;39539;52.202;9.876;2022-08-30T00:58:51;101423.94;;;13.47;100.00
19676;BME280;39539;52.202;9.876;2022-08-30T01:01:18;101445.91;;;13.56;100.00
19676;BME280;39539;52.202;9.876;2022-08-30T01:03:45;101444.50;;;13.60;100.00
19676;BME280;39539;52.202;9.876;2022-08-30T01:06:12;101444.91;;;13.57;100.00
19676;BME280;39539;52.202;9.876;2022-08-30T01:08:40;101431.16;;;13.53;100.00
19676;BME280;39539;52.202;9.876;2022-08-30T01:11:06;101449.00;;;13.66;100.00
19676;BME280;39539;52.202;9.876;2022-08-30T01:13:32;101443.44;;;13.61;100.00
19676;BME280;39539;52.202;9.876;2022-08-30T01:15:59;101452.72;;;13.65;100.00
19676;BME280;39539;52.202;9.876;2022-08-30T01:18:25;101446.13;;;13.61;100.00
19676;BME280;39539;52.202;9.876;2022-08-30T01:23:42;101451.47;;;13.61;100.00
19676;BME280;39539;52.202;9.876;2022-08-30T01:26:09;101458.69;;;13.54;100.00
19676;BME280;39539;52.202;9.876;2022-08-30T01:28:35;101454.34;;;13.53;100.00
19676;BME280;39539;52.202;9.876;2022-08-30T01:31:03;101451.88;;;13.44;100.00
19676;BME280;39539;52.202;9.876;2022-08-30T01:33:28;101448.41;;;13.44;100.00
19676;BME280;39539;52.202;9.876;2022-08-30T01:35:55;101456.00;;;13.47;100.00
19676;BME280;39539;52.202;9.876;2022-08-30T01:38:25;101462.56;;;13.44;100.00
19676;BME280;39539;52.202;9.876;2022-08-30T01:40:59;101460.53;;;13.46;100.00
19676;BME280;39539;52.202;9.876;2022-08-30T01:43:25;101454.78;;;13.36;100.00
19676;BME280;39539;52.202;9.876;2022-08-30T01:45:51;101465.06;;;13.39;100.00
19676;BME280;39539;52.202;9.876;2022-08-30T01:48:16;101444.47;;;13.20;100.00
19676;BME280;39539;52.202;9.876;2022-08-30T01:50:42;101464.00;;;13.40;100.00
19676;BME280;39539;52.202;9.876;2022-08-30T01:53:08;101459.31;;;13.42;100.00
19676;BME280;39539;52.202;9.876;2022-08-30T01:55:34;101436.69;;;13.38;100.00
19676;BME280;39539;52.202;9.876;2022-08-30T01:57:59;101449.63;;;13.48;100.00
19676;BME280;39539;52.202;9.876;2022-08-30T02:00:25;101436.91;;;13.43;100.00
19676;BME280;39539;52.202;9.876;2022-08-30T02:02:52;101429.50;;;13.39;100.00
19676;BME280;39539;52.202;9.876;2022-08-30T02:05:17;101450.22;;;13.50;100.00
19676;BME280;39539;52.202;9.876;2022-08-30T02:07:42;101459.91;;;13.51;100.00
19676;BME280;39539;52.202;9.876;2022-08-30T02:10:10;101451.09;;;13.51;100.00
19676;BME280;39539;52.202;9.876;2022-08-30T02:12:36;101448.59;;;13.56;100.00
19676;BME280;39539;52.202;9.876;2022-08-30T02:15:01;101449.03;;;13.46;100.00
19676;BME280;39539;52.202;9.876;2022-08-30T02:17:26;101446.75;;;13.50;100.00
19676;BME280;39539;52.202;9.876;2022-08-30T02:19:52;101428.88;;;13.30;100.00
19676;BME280;39539;52.202;9.876;2022-08-30T02:22:17;101436.31;;;13.28;100.00
19676;BME280;39539;52.202;9.876;2022-08-30T02:24:45;101437.13;;;13.29;100.00
19676;BME280;39539;52.202;9.876;2022-08-30T02:27:10;101433.00;;;13.26;100.00
19676;BME280;39539;52.202;9.876;2022-08-30T02:29:35;101450.25;;;13.30;100.00
19676;BME280;39539;52.202;9.876;2022-08-30T02:32:01;101439.13;;;13.20;100.00
19676;BME280;39539;52.202;9.876;2022-08-30T02:34:26;101451.50;;;13.28;100.00
19676;BME280;39539;52.202;9.876;2022-08-30T02:36:52;101451.25;;;13.22;100.00
19676;BME280;39539;52.202;9.876;2022-08-30T02:39:17;101442.00;;;13.12;100.00
19676;BME280;39539;52.202;9.876;2022-08-30T02:41:42;101442.81;;;13.06;100.00
19676;BME280;39539;52.202;9.876;2022-08-30T02:44:08;101439.91;;;12.87;100.00
19676;BME280;39539;52.202;9.876;2022-08-30T02:46:35;101447.50;;;12.77;100.00
19676;BME280;39539;52.202;9.876;2022-08-30T02:49:02;101450.38;;;12.75;100.00
19676;BME280;39539;52.202;9.876;2022-08-30T02:51:29;101435.34;;;12.61;100.00
19676;BME280;39539;52.202;9.876;2022-08-30T02:53:54;101437.38;;;12.59;100.00
19676;BME280;39539;52.202;9.876;2022-08-30T02:56:20;101443.13;;;12.49;100.00
19676;BME280;39539;52.202;9.876;2022-08-30T02:58:46;101446.00;;;12.54;100.00
19676;BME280;39539;52.202;9.876;2022-08-30T03:01:14;101436.38;;;12.60;100.00
19676;BME280;39539;52.202;9.876;2022-08-30T03:03:40;101442.34;;;12.69;100.00
19676;BME280;39539;52.202;9.876;2022-08-30T03:06:06;101420.97;;;12.49;100.00
19676;BME280;39539;52.202;9.876;2022-08-30T03:08:32;101437.44;;;12.66;100.00
19676;BME280;39539;52.202;9.876;2022-08-30T03:10:59;101446.69;;;12.83;100.00
19676;BME280;39539;52.202;9.876;2022-08-30T03:13:24;101453.88;;;12.89;100.00
19676;BME280;39539;52.202;9.876;2022-08-30T03:15:50;101451.66;;;12.99;100.00
19676;BME280;39539;52.202;9.876;2022-08-30T03:18:17;101454.72;;;13.03;100.00
19676;BME280;39539;52.202;9.876;2022-08-30T03:20:43;101430.91;;;12.95;100.00
19676;BME280;39539;52.202;9.876;2022-08-30T03:23:09;101438.50;;;13.04;100.00
19676;BME280;39539;52.202;9.876;2022-08-30T03:25:35;101446.31;;;13.13;100.00
19676;BME280;39539;52.202;9.876;2022-08-30T03:28:04;101431.31;;;13.12;100.00
19676;BME280;39539;52.202;9.876;2022-08-30T03:30:31;101439.13;;;13.20;100.00
19676;BME280;39539;52.202;9.876;2022-08-30T03:32:57;101444.50;;;13.33;100.00
19676;BME280;39539;52.202;9.876;2022-08-30T03:35:22;101441.84;;;13.40;100.00
19676;BME280;39539;52.202;9.876;2022-08-30T03:37:48;101428.47;;;13.40;100.00
19676;BME280;39539;52.202;9.876;2022-08-30T03:40:16;101437.28;;;13.47;100.00
19676;BME280;39539;52.202;9.876;2022-08-30T03:42:42;101444.06;;;13.63;100.00
19676;BME280;39539;52.202;9.876;2022-08-30T03:45:08;101439.97;;;13.60;100.00
19676;BME280;39539;52.202;9.876;2022-08-30T03:47:33;101441.41;;;13.63;100.00
19676;BME280;39539;52.202;9.876;2022-08-30T03:49:59;101444.88;;;13.77;100.00
19676;BME280;39539;52.202;9.876;2022-08-30T03:52:25;101445.69;;;13.77;100.00
19676;BME280;39539;52.202;9.876;2022-08-30T03:54:50;101433.59;;;13.68;100.00
19676;BME280;39539;52.202;9.876;2022-08-30T03:57:16;101435.44;;;13.67;100.00
19676;BME280;39539;52.202;9.876;2022-08-30T03:59:41;101432.13;;;13.72;100.00
19676;BME280;39539;52.202;9.876;2022-08-30T04:02:07;101442.59;;;13.67;100.00
19676;BME280;39539;52.202;9.876;2022-08-30T04:04:32;101433.97;;;13.72;100.00
19676;BME280;39539;52.202;9.876;2022-08-30T04:06:57;101433.16;;;13.71;100.00
19676;BME280;39539;52.202;9.876;2022-08-30T04:09:23;101444.84;;;13.83;100.00
19676;BME280;39539;52.202;9.876;2022-08-30T04:11:49;101428.00;;;13.83;100.00
19676;BME280;39539;52.202;9.876;2022-08-30T04:14:15;101438.66;;;13.89;100.00
19676;BME280;39539;52.202;9.876;2022-08-30T04:16:40;101433.31;;;13.89;100.00
19676;BME280;39539;52.202;9.876;2022-08-30T04:19:06;101423.06;;;13.80;100.00
19676;BME280;39539;52.202;9.876;2022-08-30T04:21:31;101450.59;;;13.87;100.00
19676;BME280;39539;52.202;9.876;2022-08-30T04:23:57;101445.25;;;13.80;100.00
19676;BME280;39539;52.202;9.876;2022-08-30T04:26:22;101458.59;;;13.93;100.00
19676;BME280;39539;52.202;9.876;2022-08-30T04:28:48;101451.44;;;13.87;100.00
19676;BME280;39539;52.202;9.876;2022-08-30T04:31:15;101453.06;;;13.88;100.00
19676;BME280;39539;52.202;9.876;2022-08-30T04:33:41;101453.91;;;13.82;100.00
19676;BME280;39539;52.202;9.876;2022-08-30T04:36:09;101451.00;;;13.84;100.00
19676;BME280;39539;52.202;9.876;2022-08-30T04:38:38;101463.75;;;13.88;100.00
19676;BME280;39539;52.202;9.876;2022-08-30T04:41:09;101460.91;;;13.77;100.00
19676;BME280;39539;52.202;9.876;2022-08-30T04:43:36;101469.94;;;13.69;100.00
19676;BME280;39539;52.202;9.876;2022-08-30T04:46:07;101465.84;;;13.73;100.00
19676;BME280;39539;52.202;9.876;2022-08-30T04:48:33;101478.59;;;13.71;100.00
19676;BME280;39539;52.202;9.876;2022-08-30T04:51:02;101473.66;;;13.61;100.00
19676;BME280;39539;52.202;9.876;2022-08-30T04:53:28;101467.50;;;13.61;100.00
19676;BME280;39539;52.202;9.876;2022-08-30T04:55:54;101479.84;;;13.62;100.00
19676;BME280;39539;52.202;9.876;2022-08-30T04:58:19;101484.13;;;13.63;100.00
19676;BME280;39539;52.202;9.876;2022-08-30T05:00:45;101492.56;;;13.73;100.00
19676;BME280;39539;52.202;9.876;2022-08-30T05:03:10;101495.03;;;13.68;100.00
19676;BME280;39539;52.202;9.876;2022-08-30T05:05:38;101497.50;;;13.63;100.00
19676;BME280;39539;52.202;9.876;2022-08-30T05:08:16;101489.47;;;13.69;100.00
19676;BME280;39539;52.202;9.876;2022-08-30T05:10:49;101490.28;;;13.70;100.00
19676;BME280;39539;52.202;9.876;2022-08-30T05:13:21;101496.66;;;13.69;100.00
19676;BME280;39539;52.202;9.876;2022-08-30T05:15:47;101495.63;;;13.70;100.00
19676;BME280;39539;52.202;9.876;2022-08-30T05:18:13;101494.63;;;13.71;100.00
19676;BME280;39539;52.202;9.876;2022-08-30T05:20:45;101499.53;;;13.81;100.00
19676;BME280;39539;52.202;9.876;2022-08-30T05:23:13;101504.91;;;13.74;100.00
19676;BME280;39539;52.202;9.876;2022-08-30T05:25:40;101497.06;;;13.73;100.00
19676;BME280;39539;52.202;9.876;2022-08-30T05:28:07;101513.94;;;13.73;100.00
19676;BME280;39539;52.202;9.876;2022-08-30T05:30:34;101506.13;;;13.65;100.00
19676;BME280;39539;52.202;9.876;2022-08-30T05:33:01;101490.94;;;13.59;100.00
19676;BME280;39539;52.202;9.876;2022-08-30T05:35:27;101510.63;;;13.78;100.00
19676;BME280;39539;52.202;9.876;2022-08-30T05:37:53;101509.41;;;13.80;100.00
19676;BME280;39539;52.202;9.876;2022-08-30T05:40:19;101500.97;;;13.70;100.00
19676;BME280;39539;52.202;9.876;2022-08-30T05:42:45;101517.00;;;13.83;100.00
19676;BME280;39539;52.202;9.876;2022-08-30T05:45:13;101517.19;;;13.95;100.00
19676;BME280;39539;52.202;9.876;2022-08-30T05:47:39;101513.91;;;13.93;100.00
19676;BME280;39539;52.202;9.876;2022-08-30T05:50:06;101495.41;;;13.78;100.00
19676;BME280;39539;52.202;9.876;2022-08-30T05:52:41;101491.13;;;13.77;100.00
19676;BME280;39539;52.202;9.876;2022-08-30T05:55:08;101501.19;;;13.75;100.00
19676;BME280;39539;52.202;9.876;2022-08-30T05:57:36;101509.00;;;13.90;100.00
19676;BME280;39539;52.202;9.876;2022-08-30T06:00:08;101520.50;;;13.84;100.00
19676;BME280;39539;52.202;9.876;2022-08-30T06:02:33;101501.41;;;13.74;100.00
19676;BME280;39539;52.202;9.876;2022-08-30T06:05:01;101505.69;;;13.81;100.00
19676;BME280;39539;52.202;9.876;2022-08-30T06:07:26;101488.44;;;13.77;100.00
19676;BME280;39539;52.202;9.876;2022-08-30T06:09:52;101506.13;;;13.85;100.00
19676;BME280;39539;52.202;9.876;2022-08-30T06:12:19;101500.75;;;13.91;100.00
19676;BME280;39539;52.202;9.876;2022-08-30T06:14:44;101498.06;;;13.91;100.00
19676;BME280;39539;52.202;9.876;2022-08-30T06:17:10;101513.66;;;14.14;100.00
19676;BME280;39539;52.202;9.876;2022-08-30T06:19:35;101496.81;;;14.07;100.00
19676;BME280;39539;52.202;9.876;2022-08-30T06:22:02;101514.66;;;14.27;100.00
19676;BME280;39539;52.202;9.876;2022-08-30T06:24:27;101502.94;;;14.28;100.00
19676;BME280;39539;52.202;9.876;2022-08-30T06:26:53;101501.03;;;14.35;100.00
19676;BME280;39539;52.202;9.876;2022-08-30T06:29:19;101518.66;;;14.63;100.00
19676;BME280;39539;52.202;9.876;2022-08-30T06:31:46;101505.75;;;14.53;100.00
19676;BME280;39539;52.202;9.876;2022-08-30T06:34:13;101519.09;;;14.59;100.00
19676;BME280;39539;52.202;9.876;2022-08-30T06:36:40;101519.09;;;14.59;100.00
19676;BME280;39539;52.202;9.876;2022-08-30T06:39:05;101524.41;;;14.73;100.00
19676;BME280;39539;52.202;9.876;2022-08-30T06:41:33;101507.56;;;14.59;100.00
19676;BME280;39539;52.202;9.876;2022-08-30T06:44:00;101514.31;;;14.68;100.00
19676;BME280;39539;52.202;9.876;2022-08-30T06:46:29;101512.06;;;14.65;100.00
19676;BME280;39539;52.202;9.876;2022-08-30T06:48:57;101514.13;;;14.63;100.00
19676;BME280;39539;52.202;9.876;2022-08-30T06:51:26;101512.31;;;14.64;100.00
19676;BME280;39539;52.202;9.876;2022-08-30T06:53:53;101523.25;;;14.55;100.00
19676;BME280;39539;52.202;9.876;2022-08-30T06:56:19;101512.31;;;14.57;100.00
19676;BME280;39539;52.202;9.876;2022-08-30T06:58:45;101514.56;;;14.60;100.00
19676;BME280;39539;52.202;9.876;2022-08-30T07:01:13;101524.78;;;14.76;100.00
19676;BME280;39539;52.202;9.876;2022-08-30T07:03:40;101526.03;;;14.74;100.00
19676;BME280;39539;52.202;9.876;2022-08-30T07:06:07;101515.09;;;14.82;100.00
19676;BME280;39539;52.202;9.876;2022-08-30T07:08:42;101514.03;;;14.90;100.00
19676;BME280;39539;52.202;9.876;2022-08-30T07:11:37;101527.16;;;14.98;100.00
19676;BME280;39539;52.202;9.876;2022-08-30T07:14:05;101526.78;;;14.88;100.00
19676;BME280;39539;52.202;9.876;2022-08-30T07:16:31;101527.97;;;14.98;100.00
19676;BME280;39539;52.202;9.876;2022-08-30T07:18:59;101503.44;;;14.63;100.00
19676;BME280;39539;52.202;9.876;2022-08-30T07:21:40;101519.81;;;14.87;100.00
19676;BME280;39539;52.202;9.876;2022-08-30T07:24:10;101532.06;;;15.01;100.00
19676;BME280;39539;52.202;9.876;2022-08-30T07:26:49;101518.06;;;14.99;100.00
19676;BME280;39539;52.202;9.876;2022-08-30T07:29:16;101520.06;;;15.10;100.00
19676;BME280;39539;52.202;9.876;2022-08-30T07:31:45;101519.13;;;15.30;100.00
19676;BME280;39539;52.202;9.876;2022-08-30T07:34:10;101524.38;;;15.43;100.00
19676;BME280;39539;52.202;9.876;2022-08-30T07:36:38;101532.75;;;15.53;100.00
19676;BME280;39539;52.202;9.876;2022-08-30T07:39:05;101532.56;;;15.48;100.00
19676;BME280;39539;52.202;9.876;2022-08-30T07:41:35;101521.84;;;15.48;100.00
19676;BME280;39539;52.202;9.876;2022-08-30T07:44:05;101527.47;;;15.71;100.00
19676;BME280;39539;52.202;9.876;2022-08-30T07:46:32;101523.75;;;15.73;100.00
19676;BME280;39539;52.202;9.876;2022-08-30T07:49:03;101520.69;;;15.94;100.00
19676;BME280;39539;52.202;9.876;2022-08-30T07:51:29;101527.53;;;16.08;100.00
19676;BME280;39539;52.202;9.876;2022-08-30T07:53:55;101513.97;;;16.03;100.00
19676;BME280;39539;52.202;9.876;2022-08-30T07:56:23;101525.44;;;16.10;100.00
19676;BME280;39539;52.202;9.876;2022-08-30T07:58:49;101510.84;;;16.06;100.00
19676;BME280;39539;52.202;9.876;2022-08-30T08:01:16;101531.13;;;16.21;100.00
19676;BME280;39539;52.202;9.876;2022-08-30T08:03:42;101530.38;;;16.50;100.00
19676;BME280;39539;52.202;9.876;2022-08-30T08:06:11;101531.84;;;16.65;100.00
19676;BME280;39539;52.202;9.876;2022-08-30T08:08:38;101532.13;;;16.75;100.00
19676;BME280;39539;52.202;9.876;2022-08-30T08:11:08;101536.13;;;17.02;100.00
19676;BME280;39539;52.202;9.876;2022-08-30T08:13:33;101515.59;;;17.08;100.00
19676;BME280;39539;52.202;9.876;2022-08-30T08:15:59;101538.09;;;17.37;100.00
19676;BME280;39539;52.202;9.876;2022-08-30T08:18:24;101534.94;;;17.40;100.00
19676;BME280;39539;52.202;9.876;2022-08-30T08:20:50;101540.69;;;17.44;100.00
19676;BME280;39539;52.202;9.876;2022-08-30T08:23:15;101540.22;;;17.47;100.00
19676;BME280;39539;52.202;9.876;2022-08-30T08:25:47;101534.69;;;17.30;100.00
19676;BME280;39539;52.202;9.876;2022-08-30T08:28:12;101531.28;;;17.23;100.00
19676;BME280;39539;52.202;9.876;2022-08-30T08:30:38;101537.94;;;17.32;100.00
19676;BME280;39539;52.202;9.876;2022-08-30T08:33:04;101534.94;;;17.40;100.00
19676;BME280;39539;52.202;9.876;2022-08-30T08:35:30;101535.78;;;17.53;100.00
19676;BME280;39539;52.202;9.876;2022-08-30T08:38:02;101520.00;;;17.68;100.00
19676;BME280;39539;52.202;9.876;2022-08-30T08:40:29;101518.50;;;17.72;100.00
19676;BME280;39539;52.202;9.876;2022-08-30T08:43:04;101523.66;;;17.85;100.00
19676;BME280;39539;52.202;9.876;2022-08-30T08:45:45;101530.50;;;17.58;100.00
19676;BME280;39539;52.202;9.876;2022-08-30T08:50:46;101523.75;;;17.67;100.00
19676;BME280;39539;52.202;9.876;2022-08-30T08:53:36;101530.78;;;17.68;100.00
19676;BME280;39539;52.202;9.876;2022-08-30T08:56:16;101525.09;;;17.34;100.00
19676;BME280;39539;52.202;9.876;2022-08-30T08:58:52;101518.81;;;17.52;100.00
19676;BME280;39539;52.202;9.876;2022-08-30T09:01:21;101522.50;;;17.81;100.00
19676;BME280;39539;52.202;9.876;2022-08-30T09:03:58;101518.88;;;17.87;100.00
19676;BME280;39539;52.202;9.876;2022-08-30T09:09:21;101520.03;;;17.91;100.00
19676;BME280;39539;52.202;9.876;2022-08-30T09:11:51;101520.47;;;17.65;100.00
19676;BME280;39539;52.202;9.876;2022-08-30T09:14:21;101522.97;;;17.90;100.00
19676;BME280;39539;52.202;9.876;2022-08-30T09:17:10;101525.78;;;17.95;100.00
19676;BME280;39539;52.202;9.876;2022-08-30T09:22:39;101521.22;;;17.84;100.00
19676;BME280;39539;52.202;9.876;2022-08-30T09:30:58;101516.53;;;17.79;100.00
19676;BME280;39539;52.202;9.876;2022-08-30T09:33:24;101504.47;;;17.70;100.00
19676;BME280;39539;52.202;9.876;2022-08-30T09:35:50;101500.03;;;17.64;100.00
19676;BME280;39539;52.202;9.876;2022-08-30T09:38:30;101510.06;;;17.68;100.00
19676;BME280;39539;52.202;9.876;2022-08-30T09:41:41;101514.63;;;17.68;100.00
19676;BME280;39539;52.202;9.876;2022-08-30T09:44:25;101518.88;;;17.87;100.00
19676;BME280;39539;52.202;9.876;2022-08-30T09:46:59;101500.59;;;17.66;100.00
19676;BME280;39539;52.202;9.876;2022-08-30T09:49:41;101493.72;;;17.70;100.00
19676;BME280;39539;52.202;9.876;2022-08-30T09:52:29;101502.97;;;17.86;100.00
19676;BME280;39539;52.202;9.876;2022-08-30T10:00:38;101488.69;;;18.09;100.00
19676;BME280;39539;52.202;9.876;2022-08-30T10:03:36;101494.88;;;18.09;100.00
19676;BME280;39539;52.202;9.876;2022-08-30T10:06:32;101496.13;;;18.30;100.00
19676;BME280;39539;52.202;9.876;2022-08-30T10:09:32;101487.94;;;18.66;100.00
19676;BME280;39539;52.202;9.876;2022-08-30T10:20:16;101478.06;;;18.83;96.33
19676;BME280;39539;52.202;9.876;2022-08-30T10:23:04;101480.69;;;18.95;100.00
19676;BME280;39539;52.202;9.876;2022-08-30T10:25:34;101475.09;;;18.84;97.84
19676;BME280;39539;52.202;9.876;2022-08-30T10:28:23;101469.00;;;18.89;99.44
19676;BME280;39539;52.202;9.876;2022-08-30T10:31:04;101476.19;;;18.83;100.00
19676;BME280;39539;52.202;9.876;2022-08-30T10:33:44;101480.69;;;18.95;99.60
19676;BME280;39539;52.202;9.876;2022-08-30T10:36:13;101482.50;;;19.23;99.14
19676;BME280;39539;52.202;9.876;2022-08-30T10:38:48;101483.72;;;19.15;100.00
19676;BME280;39539;52.202;9.876;2022-08-30T10:41:36;101472.03;;;18.93;100.00
19676;BME280;39539;52.202;9.876;2022-08-30T10:44:28;101473.66;;;18.77;99.35
19676;BME280;39539;52.202;9.876;2022-08-30T10:47:09;101471.03;;;18.99;99.46
19676;BME280;39539;52.202;9.876;2022-08-30T10:49:44;101457.66;;;19.04;96.19
19676;BME280;39539;52.202;9.876;2022-08-30T10:55:23;101464.53;;;19.28;95.73
19676;BME280;39539;52.202;9.876;2022-08-30T10:57:51;101461.56;;;19.47;94.04
19676;BME280;39539;52.202;9.876;2022-08-30T11:00:36;101471.44;;;20.14;91.49
19676;BME280;39539;52.202;9.876;2022-08-30T11:03:37;101466.72;;;20.70;87.76
19676;BME280;39539;52.202;9.876;2022-08-30T11:06:40;101461.06;;;21.36;85.81
19676;BME280;39539;52.202;9.876;2022-08-30T11:12:15;101443.88;;;21.52;79.85
19676;BME280;39539;52.202;9.876;2022-08-30T11:14:44;101446.50;;;21.85;80.89
19676;BME280;39539;52.202;9.876;2022-08-30T11:17:39;101444.75;;;22.11;80.15
19676;BME280;39539;52.202;9.876;2022-08-30T11:20:42;101431.69;;;22.03;79.01
19676;BME280;39539;52.202;9.876;2022-08-30T11:23:34;101420.00;;;21.39;79.61
19676;BME280;39539;52.202;9.876;2022-08-30T11:26:02;101435.16;;;21.40;79.10
19676;BME280;39539;52.202;9.876;2022-08-30T11:33:55;101427.22;;;20.96;82.81
19676;BME280;39539;52.202;9.876;2022-08-30T11:39:05;101419.34;;;21.27;83.03
19676;BME280;39539;52.202;9.876;2022-08-30T11:42:12;101417.78;;;21.36;77.21
19676;BME280;39539;52.202;9.876;2022-08-30T11:44:48;101406.31;;;21.19;78.89
19676;BME280;39539;52.202;9.876;2022-08-30T11:47:37;101400.09;;;21.18;81.22
19676;BME280;39539;52.202;9.876;2022-08-30T11:50:12;101385.72;;;21.13;80.18
19676;BME280;39539;52.202;9.876;2022-08-30T11:52:45;101387.31;;;21.46;81.33
19676;BME280;39539;52.202;9.876;2022-08-30T11:55:36;101395.09;;;21.90;78.46
19676;BME280;39539;52.202;9.876;2022-08-30T11:59:22;101386.91;;;21.80;75.40
19676;BME280;39539;52.202;9.876;2022-08-30T12:04:10;101358.34;;;21.04;77.51
19676;BME280;39539;52.202;9.876;2022-08-30T12:09:10;101366.00;;;21.17;80.20
19676;BME280;39539;52.202;9.876;2022-08-30T12:14:04;101367.59;;;20.76;79.32
19676;BME280;39539;52.202;9.876;2022-08-30T12:16:36;101367.50;;;20.66;80.86
19676;BME280;39539;52.202;9.876;2022-08-30T12:19:24;101343.94;;;20.56;80.76
19676;BME280;39539;52.202;9.876;2022-08-30T12:21:56;101362.81;;;20.88;80.05
19676;BME280;39539;52.202;9.876;2022-08-30T12:24:28;101351.97;;;21.25;79.75
19676;BME280;39539;52.202;9.876;2022-08-30T12:26:56;101350.69;;;21.33;77.75
19676;BME280;39539;52.202;9.876;2022-08-30T12:29:25;101348.34;;;21.47;77.08
19676;BME280;39539;52.202;9.876;2022-08-30T12:32:27;101341.00;;;21.37;76.45
19676;BME280;39539;52.202;9.876;2022-08-30T12:35:05;101336.75;;;21.57;76.84
19676;BME280;39539;52.202;9.876;2022-08-30T12:37:37;101315.25;;;21.29;76.71
19676;BME280;39539;52.202;9.876;2022-08-30T12:40:11;101335.72;;;21.15;76.99
19676;BME280;39539;52.202;9.876;2022-08-30T12:42:40;101314.47;;;20.92;79.38
19676;BME280;39539;52.202;9.876;2022-08-30T12:45:11;101323.50;;;21.07;78.03
19676;BME280;39539;52.202;9.876;2022-08-30T12:47:45;101327.44;;;21.32;77.69
19676;BME280;39539;52.202;9.876;2022-08-30T12:50:20;101327.97;;;21.34;75.96
19676;BME280;39539;52.202;9.876;2022-08-30T12:53:07;101319.28;;;21.27;74.03
19676;BME280;39539;52.202;9.876;2022-08-30T12:55:56;101300.38;;;21.32;73.93
19676;BME280;39539;52.202;9.876;2022-08-30T12:58:59;101308.59;;;21.47;74.19
19676;BME280;39539;52.202;9.876;2022-08-30T13:01:27;101303.28;;;21.73;72.12
19676;BME280;39539;52.202;9.876;2022-08-30T13:04:19;101296.84;;;21.89;71.48
19676;BME280;39539;52.202;9.876;2022-08-30T13:07:00;101297.91;;;21.93;72.49
19676;BME280;39539;52.202;9.876;2022-08-30T13:09:35;101282.16;;;21.70;72.47
19676;BME280;39539;52.202;9.876;2022-08-30T13:12:06;101284.59;;;21.66;72.32
19676;BME280;39539;52.202;9.876;2022-08-30T13:14:41;101288.97;;;21.78;73.51
19676;BME280;39539;52.202;9.876;2022-08-30T13:19:41;101278.09;;;21.67;68.55
19676;BME280;39539;52.202;9.876;2022-08-30T13:25:01;101264.53;;;21.62;64.78
19676;BME280;39539;52.202;9.876;2022-08-30T13:27:28;101263.19;;;21.65;65.13
19676;BME280;39539;52.202;9.876;2022-08-30T13:29:55;101266.72;;;21.70;64.62
19676;BME280;39539;52.202;9.876;2022-08-30T13:32:22;101269.19;;;21.72;64.85
19676;BME280;39539;52.202;9.876;2022-08-30T13:34:49;101262.13;;;21.61;65.29
19676;BME280;39539;52.202;9.876;2022-08-30T13:37:21;101267.28;;;21.72;65.39
19676;BME280;39539;52.202;9.876;2022-08-30T13:39:49;101256.72;;;21.71;65.07
19676;BME280;39539;52.202;9.876;2022-08-30T13:42:17;101242.09;;;21.67;63.52
19676;BME280;39539;52.202;9.876;2022-08-30T13:44:42;101255.13;;;21.80;65.30
19676;BME280;39539;52.202;9.876;2022-08-30T13:47:12;101254.03;;;21.81;64.54
19676;BME280;39539;52.202;9.876;2022-08-30T13:49:39;101249.16;;;21.78;64.47
19676;BME280;39539;52.202;9.876;2022-08-30T13:52:08;101244.28;;;21.70;64.48
19676;BME280;39539;52.202;9.876;2022-08-30T13:54:35;101248.59;;;21.66;64.99
19676;BME280;39539;52.202;9.876;2022-08-30T13:57:01;101251.31;;;21.76;65.03